sensor_id;sensor_type;location;lat;lon;timestamp;pressure;altitude;pressure_sealevel;temperature;humidity
63321;BME280;49449;48.800;9.534;2023-12-07T00:01:56;98877.81;;;3.67;43.80
63321;BME280;49449;48.800;9.534;2023-12-07T00:04:24;98877.22;;;3.56;44.01
63321;BME280;49449;48.800;9.534;2023-12-07T00:06:51;98886.69;;;3.57;44.16
63321;BME280;49449;48.800;9.534;2023-12-07T00:09:19;98884.72;;;3.59;44.14
63321;BME280;49449;48.800;9.534;2023-12-07T00:11:48;98888.41;;;3.65;44.44
63321;BME280;49449;48.800;9.534;2023-12-07T00:14:16;98890.06;;;3.66;44.27
63321;BME280;49449;48.800;9.534;2023-12-07T00:16:44;98894.44;;;3.66;44.49
63321;BME280;49449;48.800;9.534;2023-12-07T00:19:12;98896.72;;;3.69;44.22
63321;BME280;49449;48.800;9.534;2023-12-07T00:21:40;98899.97;;;3.71;44.07
63321;BME280;49449;48.800;9.534;2023-12-07T00:24:08;98887.38;;;3.74;43.88
63321;BME280;49449;48.800;9.534;2023-12-07T00:26:36;98896.13;;;3.58;43.86
63321;BME280;49449;48.800;9.534;2023-12-07T00:29:05;98890.59;;;3.53;43.89
63321;BME280;49449;48.800;9.534;2023-12-07T00:31:33;98897.94;;;3.58;43.98
63321;BME280;49449;48.800;9.534;2023-12-07T00:34:01;98895.78;;;3.61;44.05
63321;BME280;49449;48.800;9.534;2023-12-07T00:36:29;98895.63;;;3.63;43.81
63321;BME280;49449;48.800;9.534;2023-12-07T00:38:57;98895.63;;;3.63;43.84
63321;BME280;49449;48.800;9.534;2023-12-07T00:41:25;98902.81;;;3.61;43.87
63321;BME280;49449;48.800;9.534;2023-12-07T00:43:52;98912.66;;;3.59;44.07
63321;BME280;49449;48.800;9.534;2023-12-07T00:46:22;98912.44;;;3.60;44.21
63321;BME280;49449;48.800;9.534;2023-12-07T00:48:50;98903.63;;;3.61;44.22
63321;BME280;49449;48.800;9.534;2023-12-07T00:51:18;98907.69;;;3.64;43.95
63321;BME280;49449;48.800;9.534;2023-12-07T00:53:46;98904.91;;;3.66;44.22
63321;BME280;49449;48.800;9.534;2023-12-07T00:56:13;98906.88;;;3.63;44.42
63321;BME280;49449;48.800;9.534;2023-12-07T00:58:41;98912.75;;;3.66;44.11
63321;BME280;49449;48.800;9.534;2023-12-07T01:01:09;98912.56;;;3.67;44.37
63321;BME280;49449;48.800;9.534;2023-12-07T01:03:41;98911.94;;;3.65;43.97
63321;BME280;49449;48.800;9.534;2023-12-07T01:06:09;98912.56;;;3.67;43.64
63321;BME280;49449;48.800;9.534;2023-12-07T01:08:38;98914.88;;;3.62;43.80
63321;BME280;49449;48.800;9.534;2023-12-07T01:11:05;98923.09;;;3.59;44.27
63321;BME280;49449;48.800;9.534;2023-12-07T01:13:33;98928.50;;;3.57;43.99
63321;BME280;49449;48.800;9.534;2023-12-07T01:16:02;98931.91;;;3.58;44.21
63321;BME280;49449;48.800;9.534;2023-12-07T01:18:30;98936.78;;;3.61;44.12
63321;BME280;49449;48.800;9.534;2023-12-07T01:21:00;98933.66;;;3.66;43.88
63321;BME280;49449;48.800;9.534;2023-12-07T01:23:28;98940.03;;;3.63;43.92
63321;BME280;49449;48.800;9.534;2023-12-07T01:25:56;98934.19;;;3.61;43.80
63321;BME280;49449;48.800;9.534;2023-12-07T01:28:24;98939.91;;;3.56;43.98
63321;BME280;49449;48.800;9.534;2023-12-07T01:30:51;98939.91;;;3.56;44.09
63321;BME280;49449;48.800;9.534;2023-12-07T01:33:19;98947.41;;;3.59;44.21
63321;BME280;49449;48.800;9.534;2023-12-07T01:35:48;98955.25;;;3.59;44.19
63321;BME280;49449;48.800;9.534;2023-12-07T01:38:17;98949.88;;;3.61;44.19
63321;BME280;49449;48.800;9.534;2023-12-07T01:40:45;98948.06;;;3.61;43.87
63321;BME280;49449;48.800;9.534;2023-12-07T01:43:13;98941.03;;;3.62;43.74
63321;BME280;49449;48.800;9.534;2023-12-07T01:45:41;98938.06;;;3.65;43.46
63321;BME280;49449;48.800;9.534;2023-12-07T01:48:09;98940.91;;;3.55;43.30
63321;BME280;49449;48.800;9.534;2023-12-07T01:50:37;98938.16;;;3.49;43.63
63321;BME280;49449;48.800;9.534;2023-12-07T01:53:05;98941.25;;;3.52;43.64
63321;BME280;49449;48.800;9.534;2023-12-07T01:55:36;98944.38;;;3.48;43.83
63321;BME280;49449;48.800;9.534;2023-12-07T01:58:04;98947.97;;;3.47;44.53
63321;BME280;49449;48.800;9.534;2023-12-07T02:00:33;98955.47;;;3.50;44.12
63321;BME280;49449;48.800;9.534;2023-12-07T02:03:03;98954.47;;;3.51;44.59
63321;BME280;49449;48.800;9.534;2023-12-07T02:05:32;98948.28;;;3.52;44.06
63321;BME280;49449;48.800;9.534;2023-12-07T02:08:00;98952.03;;;3.49;44.08
63321;BME280;49449;48.800;9.534;2023-12-07T02:10:28;98949.25;;;3.51;44.38
63321;BME280;49449;48.800;9.534;2023-12-07T02:12:58;98961.34;;;3.52;44.32
63321;BME280;49449;48.800;9.534;2023-12-07T02:15:25;98959.72;;;3.51;44.41
63321;BME280;49449;48.800;9.534;2023-12-07T02:18:00;98950.53;;;3.55;44.40
63321;BME280;49449;48.800;9.534;2023-12-07T02:20:36;98947.44;;;3.51;43.47
63321;BME280;49449;48.800;9.534;2023-12-07T02:23:07;98947.03;;;3.39;43.75
63321;BME280;49449;48.800;9.534;2023-12-07T02:25:36;98951.41;;;3.47;44.05
63321;BME280;49449;48.800;9.534;2023-12-07T02:28:06;98954.81;;;3.48;45.00
63321;BME280;49449;48.800;9.534;2023-12-07T02:30:34;98959.25;;;3.47;45.14
63321;BME280;49449;48.800;9.534;2023-12-07T02:33:01;98961.69;;;3.49;44.96
63321;BME280;49449;48.800;9.534;2023-12-07T02:35:32;98959.06;;;3.49;44.83
63321;BME280;49449;48.800;9.534;2023-12-07T02:38:00;98964.13;;;3.50;45.05
63321;BME280;49449;48.800;9.534;2023-12-07T02:40:30;98962.97;;;3.53;44.78
63321;BME280;49449;48.800;9.534;2023-12-07T02:42:59;98973.06;;;3.56;44.45
63321;BME280;49449;48.800;9.534;2023-12-07T02:45:29;98973.53;;;3.59;44.08
63321;BME280;49449;48.800;9.534;2023-12-07T02:47:57;98956.88;;;3.60;43.67
63321;BME280;49449;48.800;9.534;2023-12-07T02:50:25;98954.47;;;3.51;43.22
63321;BME280;49449;48.800;9.534;2023-12-07T02:52:53;98958.63;;;3.37;43.62
63321;BME280;49449;48.800;9.534;2023-12-07T02:55:23;98952.94;;;3.33;44.19
63321;BME280;49449;48.800;9.534;2023-12-07T02:57:51;98950.78;;;3.37;44.27
63321;BME280;49449;48.800;9.534;2023-12-07T03:00:19;98946.84;;;3.41;44.20
63321;BME280;49449;48.800;9.534;2023-12-07T03:02:49;98955.03;;;3.38;44.46
63321;BME280;49449;48.800;9.534;2023-12-07T03:05:18;98955.84;;;3.38;45.08
63321;BME280;49449;48.800;9.534;2023-12-07T03:07:46;98964.31;;;3.40;44.98
63321;BME280;49449;48.800;9.534;2023-12-07T03:10:14;98966.78;;;3.42;44.76
63321;BME280;49449;48.800;9.534;2023-12-07T03:12:44;98961.22;;;3.45;45.37
63321;BME280;49449;48.800;9.534;2023-12-07T03:15:12;98965.28;;;3.48;44.82
63321;BME280;49449;48.800;9.534;2023-12-07T03:17:40;98966.06;;;3.48;44.63
63321;BME280;49449;48.800;9.534;2023-12-07T03:20:12;98972.78;;;3.51;44.71
63321;BME280;49449;48.800;9.534;2023-12-07T03:22:40;98969.19;;;3.52;44.75
63321;BME280;49449;48.800;9.534;2023-12-07T03:25:08;98965.56;;;3.53;44.64
63321;BME280;49449;48.800;9.534;2023-12-07T03:27:36;98972.59;;;3.52;44.49
63321;BME280;49449;48.800;9.534;2023-12-07T03:30:05;98962.97;;;3.53;44.29
63321;BME280;49449;48.800;9.534;2023-12-07T03:32:33;98972.13;;;3.49;44.19
63321;BME280;49449;48.800;9.534;2023-12-07T03:35:01;98969.34;;;3.50;44.38
63321;BME280;49449;48.800;9.534;2023-12-07T03:37:30;98962.50;;;3.49;44.41
63321;BME280;49449;48.800;9.534;2023-12-07T03:39:58;98963.28;;;3.50;44.88
63321;BME280;49449;48.800;9.534;2023-12-07T03:42:26;98962.00;;;3.54;44.50
63321;BME280;49449;48.800;9.534;2023-12-07T03:44:53;98967.22;;;3.54;44.65
63321;BME280;49449;48.800;9.534;2023-12-07T03:47:21;98963.13;;;3.51;44.46
63321;BME280;49449;48.800;9.534;2023-12-07T03:49:49;98961.50;;;3.50;44.81
63321;BME280;49449;48.800;9.534;2023-12-07T03:52:17;98964.94;;;3.51;44.86
63321;BME280;49449;48.800;9.534;2023-12-07T03:54:46;98958.75;;;3.52;44.68
63321;BME280;49449;48.800;9.534;2023-12-07T03:57:14;98967.22;;;3.54;44.52
63321;BME280;49449;48.800;9.534;2023-12-07T03:59:42;98962.00;;;3.54;45.95
63321;BME280;49449;48.800;9.534;2023-12-07T04:02:09;98976.66;;;3.55;45.37
63321;BME280;49449;48.800;9.534;2023-12-07T04:04:37;98976.66;;;3.55;44.84
63321;BME280;49449;48.800;9.534;2023-12-07T04:07:06;98975.06;;;3.54;44.72
63321;BME280;49449;48.800;9.534;2023-12-07T04:09:33;98981.25;;;3.53;44.55
63321;BME280;49449;48.800;9.534;2023-12-07T04:12:03;98978.63;;;3.53;44.68
63321;BME280;49449;48.800;9.534;2023-12-07T04:14:31;98982.06;;;3.53;44.45
63321;BME280;49449;48.800;9.534;2023-12-07T04:16:59;98983.88;;;3.53;44.43
63321;BME280;49449;48.800;9.534;2023-12-07T04:19:27;98992.50;;;3.53;44.33
63321;BME280;49449;48.800;9.534;2023-12-07T04:21:54;98988.44;;;3.51;44.32
63321;BME280;49449;48.800;9.534;2023-12-07T04:24:22;98985.84;;;3.51;44.05
63321;BME280;49449;48.800;9.534;2023-12-07T04:26:50;98992.19;;;3.48;44.27
63321;BME280;49449;48.800;9.534;2023-12-07T04:29:19;98984.34;;;3.48;44.15
63321;BME280;49449;48.800;9.534;2023-12-07T04:31:47;98989.59;;;3.48;44.58
63321;BME280;49449;48.800;9.534;2023-12-07T04:34:15;98987.16;;;3.47;44.42
63321;BME280;49449;48.800;9.534;2023-12-07T04:36:42;98988.13;;;3.46;44.64
63321;BME280;49449;48.800;9.534;2023-12-07T04:39:10;98992.19;;;3.48;44.88
63321;BME280;49449;48.800;9.534;2023-12-07T04:41:38;98991.41;;;3.48;44.63
63321;BME280;49449;48.800;9.534;2023-12-07T04:44:06;98996.78;;;3.46;44.91
63321;BME280;49449;48.800;9.534;2023-12-07T04:46:38;98991.72;;;3.44;44.40
63321;BME280;49449;48.800;9.534;2023-12-07T04:49:05;98996.94;;;3.44;44.44
63321;BME280;49449;48.800;9.534;2023-12-07T04:51:33;98997.31;;;3.41;44.83
63321;BME280;49449;48.800;9.534;2023-12-07T04:54:02;98998.13;;;3.42;44.76
63321;BME280;49449;48.800;9.534;2023-12-07T04:56:31;98994.53;;;3.43;44.99
63321;BME280;49449;48.800;9.534;2023-12-07T04:58:58;98993.69;;;3.42;44.97
63321;BME280;49449;48.800;9.534;2023-12-07T05:01:26;99002.69;;;3.40;45.02
63321;BME280;49449;48.800;9.534;2023-12-07T05:03:55;98990.28;;;3.42;44.54
63321;BME280;49449;48.800;9.534;2023-12-07T05:06:23;98992.72;;;3.43;44.93
63321;BME280;49449;48.800;9.534;2023-12-07T05:08:51;98990.91;;;3.44;44.72
63321;BME280;49449;48.800;9.534;2023-12-07T05:11:19;98985.22;;;3.40;44.28
63321;BME280;49449;48.800;9.534;2023-12-07T05:13:47;98994.06;;;3.39;44.14
63321;BME280;49449;48.800;9.534;2023-12-07T05:16:15;98988.84;;;3.39;44.45
63321;BME280;49449;48.800;9.534;2023-12-07T05:18:43;98996.00;;;3.37;44.06
63321;BME280;49449;48.800;9.534;2023-12-07T05:21:12;98991.31;;;3.33;44.31
63321;BME280;49449;48.800;9.534;2023-12-07T05:23:40;98993.72;;;3.26;44.71
63321;BME280;49449;48.800;9.534;2023-12-07T05:26:08;99000.44;;;3.20;44.58
63321;BME280;49449;48.800;9.534;2023-12-07T05:28:37;98996.38;;;3.18;44.29
63321;BME280;49449;48.800;9.534;2023-12-07T05:31:05;98997.69;;;3.14;44.38
63321;BME280;49449;48.800;9.534;2023-12-07T05:33:33;98998.88;;;3.03;44.18
63321;BME280;49449;48.800;9.534;2023-12-07T05:36:01;99000.00;;;3.00;45.11
63321;BME280;49449;48.800;9.534;2023-12-07T05:38:31;99001.97;;;2.98;44.41
63321;BME280;49449;48.800;9.534;2023-12-07T05:40:59;99010.13;;;2.95;44.52
63321;BME280;49449;48.800;9.534;2023-12-07T05:43:26;99008.50;;;2.94;44.67
63321;BME280;49449;48.800;9.534;2023-12-07T05:45:54;99008.84;;;2.91;44.89
63321;BME280;49449;48.800;9.534;2023-12-07T05:48:22;99014.56;;;2.86;44.35
63321;BME280;49449;48.800;9.534;2023-12-07T05:50:50;99019.59;;;2.88;44.68
63321;BME280;49449;48.800;9.534;2023-12-07T05:53:18;99014.06;;;2.91;44.46
63321;BME280;49449;48.800;9.534;2023-12-07T05:55:47;99016.34;;;2.94;44.45
63321;BME280;49449;48.800;9.534;2023-12-07T05:58:15;99018.78;;;2.96;44.40
63321;BME280;49449;48.800;9.534;2023-12-07T06:00:44;99020.75;;;2.85;44.93
63321;BME280;49449;48.800;9.534;2023-12-07T06:03:13;99014.22;;;2.90;44.24
63321;BME280;49449;48.800;9.534;2023-12-07T06:05:42;99013.72;;;2.94;44.57
63321;BME280;49449;48.800;9.534;2023-12-07T06:08:11;99012.09;;;2.93;44.29
63321;BME280;49449;48.800;9.534;2023-12-07T06:10:39;99012.09;;;2.93;44.37
63321;BME280;49449;48.800;9.534;2023-12-07T06:13:08;99014.56;;;2.86;44.29
63321;BME280;49449;48.800;9.534;2023-12-07T06:15:37;99017.00;;;2.88;44.61
63321;BME280;49449;48.800;9.534;2023-12-07T06:18:04;99013.72;;;2.86;44.78
63321;BME280;49449;48.800;9.534;2023-12-07T06:20:32;99017.00;;;2.88;44.70
63321;BME280;49449;48.800;9.534;2023-12-07T06:23:01;99015.53;;;2.85;44.83
63321;BME280;49449;48.800;9.534;2023-12-07T06:25:29;99008.69;;;2.84;44.60
63321;BME280;49449;48.800;9.534;2023-12-07T06:27:58;99009.84;;;2.82;45.04
63321;BME280;49449;48.800;9.534;2023-12-07T06:30:27;99008.34;;;2.79;44.97
63321;BME280;49449;48.800;9.534;2023-12-07T06:32:55;99010.31;;;2.77;44.93
63321;BME280;49449;48.800;9.534;2023-12-07T06:35:23;99009.03;;;2.81;44.94
63321;BME280;49449;48.800;9.534;2023-12-07T06:37:50;99018.31;;;2.92;44.60
63321;BME280;49449;48.800;9.534;2023-12-07T06:40:18;99012.94;;;2.94;44.43
63321;BME280;49449;48.800;9.534;2023-12-07T06:42:47;99019.44;;;2.90;44.46
63321;BME280;49449;48.800;9.534;2023-12-07T06:45:15;99012.13;;;2.85;44.57
63321;BME280;49449;48.800;9.534;2023-12-07T06:47:44;99014.41;;;2.80;44.25
63321;BME280;49449;48.800;9.534;2023-12-07T06:50:12;99016.38;;;2.78;44.71
63321;BME280;49449;48.800;9.534;2023-12-07T06:52:40;99025.84;;;2.71;43.74
63321;BME280;49449;48.800;9.534;2023-12-07T06:55:08;99023.56;;;2.67;43.99
63321;BME280;49449;48.800;9.534;2023-12-07T06:57:37;99026.16;;;2.67;44.76
63321;BME280;49449;48.800;9.534;2023-12-07T07:00:06;99031.53;;;2.58;45.71
63321;BME280;49449;48.800;9.534;2023-12-07T07:02:37;99030.41;;;2.60;45.30
63321;BME280;49449;48.800;9.534;2023-12-07T07:05:07;99026.00;;;2.61;45.03
63321;BME280;49449;48.800;9.534;2023-12-07T07:07:38;99026.16;;;2.59;44.50
63321;BME280;49449;48.800;9.534;2023-12-07T07:10:06;99024.38;;;2.52;44.96
63321;BME280;49449;48.800;9.534;2023-12-07T07:12:36;99026.66;;;2.46;45.51
63321;BME280;49449;48.800;9.534;2023-12-07T07:15:06;99025.34;;;2.51;44.74
63321;BME280;49449;48.800;9.534;2023-12-07T07:17:34;99030.88;;;2.56;44.16
63321;BME280;49449;48.800;9.534;2023-12-07T07:20:02;99033.00;;;2.52;45.11
63321;BME280;49449;48.800;9.534;2023-12-07T07:22:32;99035.78;;;2.51;44.17
63321;BME280;49449;48.800;9.534;2023-12-07T07:25:00;99034.97;;;2.50;44.25
63321;BME280;49449;48.800;9.534;2023-12-07T07:27:29;99038.38;;;2.51;44.58
63321;BME280;49449;48.800;9.534;2023-12-07T07:29:57;99033.81;;;2.53;44.25
63321;BME280;49449;48.800;9.534;2023-12-07T07:32:25;99035.44;;;2.54;43.18
63321;BME280;49449;48.800;9.534;2023-12-07T07:34:55;99027.47;;;2.47;44.44
63321;BME280;49449;48.800;9.534;2023-12-07T07:37:22;99032.03;;;2.45;44.60
63321;BME280;49449;48.800;9.534;2023-12-07T07:39:52;99035.44;;;2.45;43.67
63321;BME280;49449;48.800;9.534;2023-12-07T07:42:19;99034.00;;;2.43;43.67
63321;BME280;49449;48.800;9.534;2023-12-07T07:44:47;99036.59;;;2.43;43.67
63321;BME280;49449;48.800;9.534;2023-12-07T07:47:15;99037.41;;;2.27;43.38
63321;BME280;49449;48.800;9.534;2023-12-07T07:49:43;99033.78;;;2.28;44.46
63321;BME280;49449;48.800;9.534;2023-12-07T07:52:12;99039.19;;;2.35;44.29
63321;BME280;49449;48.800;9.534;2023-12-07T07:54:40;99035.28;;;2.39;44.31
63321;BME280;49449;48.800;9.534;2023-12-07T07:57:09;99039.03;;;2.36;43.50
63321;BME280;49449;48.800;9.534;2023-12-07T07:59:37;99038.06;;;2.37;44.43
63321;BME280;49449;48.800;9.534;2023-12-07T08:02:05;99037.56;;;2.42;43.50
63321;BME280;49449;48.800;9.534;2023-12-07T08:04:32;99041.81;;;2.43;43.72
63321;BME280;49449;48.800;9.534;2023-12-07T08:07:00;99033.47;;;2.47;43.52
63321;BME280;49449;48.800;9.534;2023-12-07T08:09:29;99038.88;;;2.46;43.49
63321;BME280;49449;48.800;9.534;2023-12-07T08:11:57;99048.97;;;2.49;44.35
63321;BME280;49449;48.800;9.534;2023-12-07T08:14:26;99040.50;;;2.55;43.75
63321;BME280;49449;48.800;9.534;2023-12-07T08:16:54;99043.94;;;2.56;43.45
63321;BME280;49449;48.800;9.534;2023-12-07T08:19:22;99037.91;;;2.55;43.69
63321;BME280;49449;48.800;9.534;2023-12-07T08:21:50;99033.50;;;2.56;43.86
63321;BME280;49449;48.800;9.534;2023-12-07T08:24:18;99028.28;;;2.56;44.21
63321;BME280;49449;48.800;9.534;2023-12-07T08:26:46;99037.59;;;2.58;43.16
63321;BME280;49449;48.800;9.534;2023-12-07T08:29:13;99042.28;;;2.38;42.90
63321;BME280;49449;48.800;9.534;2023-12-07T08:31:43;99048.94;;;2.16;42.22
63321;BME280;49449;48.800;9.534;2023-12-07T08:34:10;99047.97;;;2.09;43.28
63321;BME280;49449;48.800;9.534;2023-12-07T08:36:38;99050.56;;;2.17;42.88
63321;BME280;49449;48.800;9.534;2023-12-07T08:39:06;99043.09;;;2.30;42.94
63321;BME280;49449;48.800;9.534;2023-12-07T08:41:36;99046.69;;;2.38;42.77
63321;BME280;49449;48.800;9.534;2023-12-07T08:44:04;99044.72;;;2.23;42.59
63321;BME280;49449;48.800;9.534;2023-12-07T08:46:32;99047.31;;;2.32;43.40
63321;BME280;49449;48.800;9.534;2023-12-07T08:49:02;99049.94;;;2.40;43.67
63321;BME280;49449;48.800;9.534;2023-12-07T08:51:30;99053.22;;;2.42;42.99
63321;BME280;49449;48.800;9.534;2023-12-07T08:53:57;99052.06;;;2.36;42.93
63321;BME280;49449;48.800;9.534;2023-12-07T08:56:25;99049.47;;;2.44;42.49
63321;BME280;49449;48.800;9.534;2023-12-07T08:58:53;99049.81;;;2.49;42.59
63321;BME280;49449;48.800;9.534;2023-12-07T09:01:21;99056.31;;;2.54;42.75
63321;BME280;49449;48.800;9.534;2023-12-07T09:03:51;99050.94;;;2.55;42.42
63321;BME280;49449;48.800;9.534;2023-12-07T09:06:20;99044.91;;;2.55;42.67
63321;BME280;49449;48.800;9.534;2023-12-07T09:08:47;99053.88;;;2.60;43.10
63321;BME280;49449;48.800;9.534;2023-12-07T09:11:15;99046.72;;;2.62;42.34
63321;BME280;49449;48.800;9.534;2023-12-07T09:13:43;99038.22;;;2.68;41.80
63321;BME280;49449;48.800;9.534;2023-12-07T09:16:11;99033.31;;;2.74;41.99
63321;BME280;49449;48.800;9.534;2023-12-07T09:18:39;99030.38;;;2.77;41.57
63321;BME280;49449;48.800;9.534;2023-12-07T09:21:07;99030.06;;;2.80;42.05
63321;BME280;49449;48.800;9.534;2023-12-07T09:23:36;99031.69;;;2.81;41.59
63321;BME280;49449;48.800;9.534;2023-12-07T09:26:04;99030.72;;;2.82;41.99
63321;BME280;49449;48.800;9.534;2023-12-07T09:28:32;99026.13;;;2.84;41.97
63321;BME280;49449;48.800;9.534;2023-12-07T09:31:00;99016.50;;;2.84;42.29
63321;BME280;49449;48.800;9.534;2023-12-07T09:33:28;99019.59;;;2.88;42.28
63321;BME280;49449;48.800;9.534;2023-12-07T09:35:56;99015.84;;;2.91;42.33
63321;BME280;49449;48.800;9.534;2023-12-07T09:38:24;99010.63;;;2.91;41.92
63321;BME280;49449;48.800;9.534;2023-12-07T09:40:54;98996.09;;;2.96;41.59
63321;BME280;49449;48.800;9.534;2023-12-07T09:43:22;98994.63;;;3.02;41.50
63321;BME280;49449;48.800;9.534;2023-12-07T09:45:51;98991.19;;;3.10;41.34
63321;BME280;49449;48.800;9.534;2023-12-07T09:48:21;98992.94;;;3.17;41.61
63321;BME280;49449;48.800;9.534;2023-12-07T09:50:49;98986.75;;;3.18;41.82
63321;BME280;49449;48.800;9.534;2023-12-07T09:53:16;98984.94;;;3.27;42.07
63321;BME280;49449;48.800;9.534;2023-12-07T09:55:46;98988.16;;;3.77;41.32
63321;BME280;49449;48.800;9.534;2023-12-07T09:58:15;98993.53;;;4.07;41.82
63321;BME280;49449;48.800;9.534;2023-12-07T10:00:46;98989.91;;;4.31;41.26
63321;BME280;49449;48.800;9.534;2023-12-07T10:03:20;98985.25;;;4.41;40.77
63321;BME280;49449;48.800;9.534;2023-12-07T10:05:56;98989.94;;;4.69;41.07
63321;BME280;49449;48.800;9.534;2023-12-07T10:08:29;98983.59;;;5.16;39.62
63321;BME280;49449;48.800;9.534;2023-12-07T10:11:04;98979.34;;;5.15;39.77
63321;BME280;49449;48.800;9.534;2023-12-07T10:13:35;98977.13;;;5.48;38.84
63321;BME280;49449;48.800;9.534;2023-12-07T10:16:08;98975.25;;;5.79;38.65
63321;BME280;49449;48.800;9.534;2023-12-07T10:18:37;98962.16;;;5.79;37.93
63321;BME280;49449;48.800;9.534;2023-12-07T10:21:08;98943.50;;;6.60;36.89
63321;BME280;49449;48.800;9.534;2023-12-07T10:23:36;98944.19;;;7.03;36.55
63321;BME280;49449;48.800;9.534;2023-12-07T10:26:05;98936.66;;;7.49;35.65
63321;BME280;49449;48.800;9.534;2023-12-07T10:28:35;98941.59;;;7.58;35.40
63321;BME280;49449;48.800;9.534;2023-12-07T10:31:04;98935.28;;;7.53;35.36
63321;BME280;49449;48.800;9.534;2023-12-07T10:33:35;98939.50;;;7.40;35.47
63321;BME280;49449;48.800;9.534;2023-12-07T10:36:04;98929.59;;;7.43;35.83
63321;BME280;49449;48.800;9.534;2023-12-07T10:38:33;98927.75;;;7.43;36.03
63321;BME280;49449;48.800;9.534;2023-12-07T10:41:04;98923.34;;;7.44;36.19
63321;BME280;49449;48.800;9.534;2023-12-07T10:43:37;98919.47;;;7.46;36.74
63321;BME280;49449;48.800;9.534;2023-12-07T10:46:05;98913.41;;;7.52;36.89
63321;BME280;49449;48.800;9.534;2023-12-07T10:48:34;98910.78;;;7.52;36.51
63321;BME280;49449;48.800;9.534;2023-12-07T10:51:07;98916.28;;;7.51;36.55
63321;BME280;49449;48.800;9.534;2023-12-07T10:53:40;98901.75;;;7.62;36.47
63321;BME280;49449;48.800;9.534;2023-12-07T10:56:11;98905.81;;;7.71;36.47
63321;BME280;49449;48.800;9.534;2023-12-07T10:58:41;98901.16;;;7.73;36.26
63321;BME280;49449;48.800;9.534;2023-12-07T11:01:10;98897.34;;;7.82;36.80
63321;BME280;49449;48.800;9.534;2023-12-07T11:03:41;98896.34;;;7.90;36.14
63321;BME280;49449;48.800;9.534;2023-12-07T11:06:11;98897.56;;;7.94;36.37
63321;BME280;49449;48.800;9.534;2023-12-07T11:08:41;98899.38;;;8.07;36.10
63321;BME280;49449;48.800;9.534;2023-12-07T11:11:16;98899.78;;;8.17;35.77
63321;BME280;49449;48.800;9.534;2023-12-07T11:13:52;98904.47;;;8.28;35.43
63321;BME280;49449;48.800;9.534;2023-12-07T11:16:29;98896.94;;;8.39;35.45
63321;BME280;49449;48.800;9.534;2023-12-07T11:18:58;98888.03;;;8.46;35.38
63321;BME280;49449;48.800;9.534;2023-12-07T11:21:26;98879.69;;;8.49;35.65
63321;BME280;49449;48.800;9.534;2023-12-07T11:23:54;98860.66;;;8.54;35.36
63321;BME280;49449;48.800;9.534;2023-12-07T11:26:22;98862.03;;;8.63;35.47
63321;BME280;49449;48.800;9.534;2023-12-07T11:28:54;98851.69;;;8.68;35.24
63321;BME280;49449;48.800;9.534;2023-12-07T11:31:22;98840.56;;;8.73;35.08
63321;BME280;49449;48.800;9.534;2023-12-07T11:33:50;98845.66;;;8.75;34.79
63321;BME280;49449;48.800;9.534;2023-12-07T11:36:17;98840.38;;;8.81;35.06
63321;BME280;49449;48.800;9.534;2023-12-07T11:39:16;98827.81;;;8.77;35.06
63321;BME280;49449;48.800;9.534;2023-12-07T11:41:50;98832.03;;;8.84;35.02
63321;BME280;49449;48.800;9.534;2023-12-07T11:44:19;98838.69;;;8.94;34.90
63321;BME280;49449;48.800;9.534;2023-12-07T11:46:46;98828.50;;;9.04;34.53
63321;BME280;49449;48.800;9.534;2023-12-07T11:49:14;98817.50;;;9.14;33.56
63321;BME280;49449;48.800;9.534;2023-12-07T11:51:44;98820.16;;;9.14;32.81
63321;BME280;49449;48.800;9.534;2023-12-07T11:54:11;98825.56;;;9.25;32.93
63321;BME280;49449;48.800;9.534;2023-12-07T11:56:39;98811.50;;;9.32;31.95
63321;BME280;49449;48.800;9.534;2023-12-07T11:59:07;98811.59;;;9.18;31.12
63321;BME280;49449;48.800;9.534;2023-12-07T12:01:37;98808.19;;;9.11;31.18
63321;BME280;49449;48.800;9.534;2023-12-07T12:04:05;98800.66;;;9.15;30.81
63321;BME280;49449;48.800;9.534;2023-12-07T12:06:35;98799.84;;;9.14;30.53
63321;BME280;49449;48.800;9.534;2023-12-07T12:09:03;98784.22;;;9.19;30.30
63321;BME280;49449;48.800;9.534;2023-12-07T12:11:31;98786.25;;;9.17;31.30
63321;BME280;49449;48.800;9.534;2023-12-07T12:13:58;98781.00;;;9.17;31.04
63321;BME280;49449;48.800;9.534;2023-12-07T12:16:26;98776.50;;;9.18;31.65
63321;BME280;49449;48.800;9.534;2023-12-07T12:18:56;98768.19;;;9.21;30.64
63321;BME280;49449;48.800;9.534;2023-12-07T12:21:24;98768.44;;;9.13;30.72
63321;BME280;49449;48.800;9.534;2023-12-07T12:23:52;98758.66;;;9.20;30.73
63321;BME280;49449;48.800;9.534;2023-12-07T12:26:20;98747.72;;;9.16;30.15
63321;BME280;49449;48.800;9.534;2023-12-07T12:28:48;98750.16;;;9.18;30.51
63321;BME280;49449;48.800;9.534;2023-12-07T12:31:16;98740.38;;;9.25;30.15
63321;BME280;49449;48.800;9.534;2023-12-07T12:33:44;98737.16;;;9.23;29.41
63321;BME280;49449;48.800;9.534;2023-12-07T12:36:13;98733.78;;;9.09;29.19
63321;BME280;49449;48.800;9.534;2023-12-07T12:38:42;98729.94;;;9.11;28.99
63321;BME280;49449;48.800;9.534;2023-12-07T12:41:18;98724.06;;;9.09;29.09
63321;BME280;49449;48.800;9.534;2023-12-07T12:43:46;98724.69;;;9.05;29.35
63321;BME280;49449;48.800;9.534;2023-12-07T12:46:15;98726.47;;;9.11;27.79
63321;BME280;49449;48.800;9.534;2023-12-07T12:48:53;98726.75;;;9.03;28.39
63321;BME280;49449;48.800;9.534;2023-12-07T12:51:25;98720.16;;;8.87;26.59
63321;BME280;49449;48.800;9.534;2023-12-07T12:53:54;98724.44;;;8.81;24.90
63321;BME280;49449;48.800;9.534;2023-12-07T12:56:22;98724.75;;;8.53;24.42
63321;BME280;49449;48.800;9.534;2023-12-07T12:58:51;98719.91;;;7.78;24.54
63321;BME280;49449;48.800;9.534;2023-12-07T13:01:22;98713.00;;;7.77;24.81
63321;BME280;49449;48.800;9.534;2023-12-07T13:03:50;98711.81;;;7.73;24.38
63321;BME280;49449;48.800;9.534;2023-12-07T13:06:18;98701.53;;;7.58;24.65
63321;BME280;49449;48.800;9.534;2023-12-07T13:08:48;98700.06;;;7.55;24.26
63321;BME280;49449;48.800;9.534;2023-12-07T13:11:16;98701.91;;;7.62;25.08
63321;BME280;49449;48.800;9.534;2023-12-07T13:13:44;98695.41;;;7.57;24.74
63321;BME280;49449;48.800;9.534;2023-12-07T13:16:13;98702.69;;;7.02;23.83
63321;BME280;49449;48.800;9.534;2023-12-07T13:18:42;98700.69;;;7.17;25.32